createdAt,value
2023-04-04T00:01:14.160Z,21.92
2023-04-04T00:03:44.199Z,18.83
2023-04-04T00:06:13.520Z,21.17
2023-04-04T00:08:43.379Z,20.60
2023-04-04T00:11:12.775Z,21.75
2023-04-04T00:13:43.145Z,20.15
2023-04-04T00:16:12.735Z,22.60
2023-04-04T00:18:42.078Z,17.20
2023-04-04T00:21:11.963Z,23.52
2023-04-04T00:23:41.256Z,18.70
2023-04-04T00:26:10.708Z,17.95
2023-04-04T00:28:42.096Z,16.52
2023-04-04T00:31:12.002Z,16.70
2023-04-04T00:33:41.341Z,14.57
2023-04-04T00:36:10.714Z,11.65
2023-04-04T00:38:41.257Z,10.70
2023-04-04T00:41:10.856Z,12.70
2023-04-04T00:43:41.761Z,8.65
2023-04-04T00:46:16.668Z,7.18
2023-04-04T00:48:46.433Z,13.60
2023-04-04T00:51:15.884Z,9.02
2023-04-04T00:53:48.214Z,8.85
2023-04-04T00:56:20.435Z,11.10
2023-04-04T00:58:53.473Z,8.65
2023-04-04T01:01:23.315Z,9.75
2023-04-04T01:03:53.257Z,6.05
2023-04-04T01:06:23.000Z,7.50
2023-04-04T01:08:53.862Z,6.65
2023-04-04T01:11:23.339Z,5.95
2023-04-04T01:13:53.964Z,7.63
2023-04-04T01:16:25.455Z,6.53
2023-04-04T01:18:56.230Z,8.55
2023-04-04T01:21:27.108Z,10.18
2023-04-04T01:24:05.144Z,7.75
2023-04-04T01:26:52.842Z,8.20
2023-04-04T01:29:22.971Z,6.75
2023-04-04T01:32:02.030Z,8.07
2023-04-04T01:34:46.218Z,9.63
2023-04-04T01:37:56.959Z,10.15
2023-04-04T01:40:30.479Z,6.38
2023-04-04T01:42:59.922Z,10.73
2023-04-04T01:45:32.120Z,6.43
2023-04-04T01:48:04.535Z,6.72
2023-04-04T01:50:34.371Z,7.00
2023-04-04T01:53:04.197Z,7.60
2023-04-04T01:55:33.507Z,8.25
2023-04-04T01:58:03.758Z,8.50
2023-04-04T02:00:33.455Z,9.52
2023-04-04T02:03:03.787Z,7.35
2023-04-04T02:05:33.270Z,9.20
2023-04-04T02:08:02.843Z,10.65
2023-04-04T02:10:41.041Z,7.95
2023-04-04T02:13:10.677Z,10.05
2023-04-04T02:15:40.247Z,6.03
2023-04-04T02:18:10.585Z,5.10
2023-04-04T02:20:40.166Z,9.40
2023-04-04T02:23:09.656Z,7.53
2023-04-04T02:25:38.789Z,5.18
2023-04-04T02:28:08.411Z,9.70
2023-04-04T02:30:37.790Z,6.75
2023-04-04T02:33:07.172Z,7.63
2023-04-04T02:35:36.769Z,5.82
2023-04-04T02:38:06.114Z,5.30
2023-04-04T02:40:43.755Z,6.13
2023-04-04T02:43:13.163Z,6.63
2023-04-04T02:45:43.514Z,6.57
2023-04-04T02:48:32.587Z,5.55
2023-04-04T02:51:04.223Z,5.85
2023-04-04T02:53:35.512Z,5.63
2023-04-04T02:56:16.946Z,5.75
2023-04-04T02:58:46.880Z,8.50
2023-04-04T03:01:16.516Z,9.80
2023-04-04T03:03:47.901Z,10.02
2023-04-04T03:06:17.299Z,8.98
2023-04-04T03:11:22.182Z,11.52
2023-04-04T03:13:56.471Z,9.00
2023-04-04T03:16:34.992Z,14.63
2023-04-04T03:19:05.144Z,9.25
2023-04-04T03:21:34.412Z,13.38
2023-04-04T03:24:04.081Z,10.68
2023-04-04T03:26:34.465Z,12.40
2023-04-04T03:29:06.083Z,15.75
2023-04-04T03:31:35.870Z,23.40
2023-04-04T03:34:05.847Z,22.52
2023-04-04T03:36:35.305Z,32.20
2023-04-04T03:39:04.417Z,33.83
2023-04-04T03:41:34.026Z,38.22
2023-04-04T03:44:06.701Z,37.28
2023-04-04T03:46:36.126Z,32.10
2023-04-04T03:49:05.774Z,37.80
2023-04-04T03:51:35.402Z,40.92
2023-04-04T03:54:06.414Z,41.78
2023-04-04T03:56:36.462Z,49.65
2023-04-04T03:59:08.435Z,47.20
2023-04-04T04:01:38.467Z,57.28
2023-04-04T04:04:08.250Z,52.40
2023-04-04T04:06:38.478Z,48.92
2023-04-04T04:09:08.019Z,37.10
2023-04-04T04:11:38.241Z,51.13
2023-04-04T04:14:07.707Z,55.88
2023-04-04T04:16:42.659Z,61.65
2023-04-04T04:19:16.066Z,62.90
2023-04-04T04:21:45.881Z,60.90
2023-04-04T04:24:15.100Z,58.80
2023-04-04T04:26:44.604Z,58.17
2023-04-04T04:29:17.765Z,53.38
2023-04-04T04:31:48.118Z,58.33
2023-04-04T04:34:17.770Z,55.47
2023-04-04T04:36:48.512Z,39.70
2023-04-04T04:39:28.424Z,34.55
2023-04-04T04:42:24.639Z,33.78
2023-04-04T04:44:58.578Z,28.63
2023-04-04T04:47:28.775Z,22.80
2023-04-04T04:49:58.421Z,22.33
2023-04-04T04:52:40.606Z,24.58
2023-04-04T04:55:10.911Z,21.75
2023-04-04T04:57:47.843Z,15.38
2023-04-04T05:00:24.969Z,12.60
2023-04-04T05:02:58.090Z,10.88
2023-04-04T05:05:37.343Z,7.45
2023-04-04T05:08:10.829Z,10.20
2023-04-04T05:10:47.291Z,7.72
2023-04-04T05:13:16.680Z,8.63
2023-04-04T05:15:49.101Z,8.05
2023-04-04T05:18:19.298Z,8.82
2023-04-04T05:20:55.336Z,7.85
2023-04-04T05:23:28.327Z,9.73
2023-04-04T05:25:59.073Z,8.90
2023-04-04T05:28:34.923Z,15.63
2023-04-04T05:31:06.614Z,13.85
2023-04-04T05:33:38.067Z,12.20
2023-04-04T05:36:15.839Z,7.97
2023-04-04T05:38:53.902Z,7.80
2023-04-04T05:41:26.542Z,10.65
2023-04-04T05:44:02.651Z,7.80
2023-04-04T05:46:32.517Z,9.50
2023-04-04T05:49:01.933Z,12.75
2023-04-04T05:51:32.058Z,14.85
2023-04-04T05:54:10.899Z,19.23
2023-04-04T05:56:41.654Z,17.30
2023-04-04T05:59:25.655Z,12.65
2023-04-04T06:02:03.283Z,13.95
2023-04-04T06:04:34.595Z,11.23
2023-04-04T06:07:06.523Z,16.73
2023-04-04T06:09:37.307Z,17.95
2023-04-04T06:12:07.214Z,16.33
2023-04-04T06:14:39.990Z,20.08
2023-04-04T06:17:10.903Z,17.10
2023-04-04T06:19:40.170Z,10.13
2023-04-04T06:22:09.564Z,15.63
2023-04-04T06:24:42.208Z,17.92
2023-04-04T06:27:14.482Z,18.65
2023-04-04T06:29:44.340Z,19.73
2023-04-04T06:32:17.668Z,20.45
2023-04-04T06:34:47.381Z,25.20
2023-04-04T06:37:19.468Z,22.90
2023-04-04T06:39:59.522Z,25.23
2023-04-04T06:42:30.248Z,22.55
2023-04-04T06:45:04.949Z,18.42
2023-04-04T06:47:34.352Z,19.02
2023-04-04T06:50:04.168Z,24.30
2023-04-04T06:52:33.820Z,20.17
2023-04-04T06:55:05.474Z,21.65
2023-04-04T06:57:34.969Z,20.77
2023-04-04T07:00:04.655Z,22.42
2023-04-04T07:02:34.400Z,23.15
2023-04-04T07:05:05.058Z,16.98
2023-04-04T07:07:34.593Z,25.77
2023-04-04T07:10:04.409Z,21.50
2023-04-04T07:12:34.565Z,18.15
2023-04-04T07:15:04.974Z,18.33
2023-04-04T07:17:34.367Z,15.30
2023-04-04T07:20:04.885Z,22.27
2023-04-04T07:22:34.560Z,16.23
2023-04-04T07:25:03.758Z,15.23
2023-04-04T07:27:33.157Z,18.48
2023-04-04T07:30:03.387Z,21.75
2023-04-04T07:32:33.022Z,19.45
2023-04-04T07:35:02.481Z,21.80
2023-04-04T07:37:31.994Z,17.48
2023-04-04T07:40:01.495Z,33.83
2023-04-04T07:42:32.380Z,23.05
2023-04-04T07:45:01.651Z,16.73
2023-04-04T07:47:31.114Z,22.23
2023-04-04T07:50:01.036Z,13.40
2023-04-04T07:52:30.413Z,15.48
2023-04-04T07:55:01.606Z,23.70
2023-04-04T07:57:31.134Z,15.40
2023-04-04T08:00:00.950Z,13.50
2023-04-04T08:02:30.390Z,16.00
2023-04-04T08:04:59.820Z,17.05
2023-04-04T08:07:30.411Z,21.42
2023-04-04T08:10:00.483Z,14.57
2023-04-04T08:12:29.660Z,19.50
2023-04-04T08:14:59.058Z,17.15
2023-04-04T08:17:28.711Z,20.92
2023-04-04T08:19:58.372Z,20.40
2023-04-04T08:22:28.302Z,17.40
2023-04-04T08:24:57.903Z,18.40
2023-04-04T08:27:26.998Z,16.48
2023-04-04T08:29:56.761Z,18.25
2023-04-04T08:32:26.300Z,17.75
2023-04-04T08:34:55.691Z,21.88
2023-04-04T08:37:24.959Z,15.52
2023-04-04T08:39:54.162Z,21.67
2023-04-04T08:42:24.586Z,13.30
2023-04-04T08:44:56.232Z,11.55
2023-04-04T08:47:27.031Z,12.15
2023-04-04T08:49:58.293Z,15.45
2023-04-04T08:52:30.954Z,15.68
2023-04-04T08:55:00.510Z,14.38
2023-04-04T08:57:30.730Z,20.85
2023-04-04T09:00:00.462Z,17.40
2023-04-04T09:03:00.961Z,18.02
2023-04-04T09:05:31.255Z,16.77
2023-04-04T09:08:01.217Z,14.50
2023-04-04T09:10:30.997Z,12.73
2023-04-04T09:13:12.530Z,10.30
2023-04-04T09:15:58.527Z,17.88
2023-04-04T09:18:28.603Z,15.77
2023-04-04T09:20:58.195Z,13.23
2023-04-04T09:23:27.256Z,14.07
2023-04-04T09:28:30.647Z,13.80
2023-04-04T09:31:06.857Z,13.57
2023-04-04T09:33:40.518Z,16.67
2023-04-04T09:36:13.848Z,15.52
2023-04-04T09:38:49.844Z,13.77
2023-04-04T09:41:21.887Z,11.38
2023-04-04T09:43:52.604Z,13.43
2023-04-04T09:46:22.337Z,10.57
2023-04-04T09:48:52.745Z,13.48
2023-04-04T09:51:22.109Z,12.90
2023-04-04T09:53:52.834Z,8.07
2023-04-04T09:56:23.514Z,7.40
2023-04-04T09:59:02.997Z,12.13
2023-04-04T10:01:35.467Z,12.30
2023-04-04T10:04:07.373Z,11.13
2023-04-04T10:06:38.558Z,9.63
2023-04-04T10:09:10.073Z,8.95
2023-04-04T10:11:39.913Z,10.60
2023-04-04T10:14:11.406Z,10.15
2023-04-04T10:16:46.919Z,9.57
2023-04-04T10:19:20.335Z,7.57
2023-04-04T10:21:50.284Z,10.23
2023-04-04T10:24:20.371Z,14.85
2023-04-04T10:26:50.061Z,8.30
2023-04-04T10:29:19.623Z,12.68
2023-04-04T10:31:55.911Z,8.93
2023-04-04T10:34:48.915Z,11.98
2023-04-04T10:37:28.247Z,10.43
2023-04-04T10:40:20.523Z,13.57
2023-04-04T10:42:52.866Z,8.10
2023-04-04T10:45:22.933Z,9.17
2023-04-04T10:47:53.444Z,10.02
2023-04-04T10:50:23.008Z,6.82
2023-04-04T10:52:54.379Z,10.30
2023-04-04T10:55:25.320Z,12.05
2023-04-04T10:57:56.695Z,14.43
2023-04-04T11:00:26.511Z,11.80
2023-04-04T11:03:00.666Z,16.48
2023-04-04T11:05:48.286Z,8.70
2023-04-04T11:08:21.908Z,7.78
2023-04-04T11:10:53.300Z,10.13
2023-04-04T11:13:41.139Z,7.95
2023-04-04T11:16:17.231Z,8.07
2023-04-04T11:18:50.530Z,10.45
2023-04-04T11:21:24.832Z,12.10
2023-04-04T11:23:54.463Z,13.88
2023-04-04T11:26:29.839Z,9.60
2023-04-04T11:29:03.446Z,11.40
2023-04-04T11:31:41.276Z,9.23
2023-04-04T11:34:13.727Z,9.95
2023-04-04T11:36:44.210Z,18.27
2023-04-04T11:39:32.261Z,5.00
2023-04-04T11:42:14.865Z,11.20
2023-04-04T11:45:04.647Z,6.57
2023-04-04T11:47:34.777Z,10.15
2023-04-04T11:50:09.942Z,11.70
2023-04-04T11:52:41.817Z,7.63
2023-04-04T11:55:22.921Z,8.57
2023-04-04T11:57:56.601Z,9.20
2023-04-04T12:00:40.517Z,13.95
2023-04-04T12:03:14.389Z,14.40
2023-04-04T12:05:45.570Z,10.85
2023-04-04T12:08:16.883Z,8.85
2023-04-04T12:10:47.001Z,9.02
2023-04-04T12:13:16.527Z,8.82
2023-04-04T12:15:46.014Z,9.48
2023-04-04T12:18:23.583Z,16.50
2023-04-04T12:20:53.776Z,16.77
2023-04-04T12:23:24.850Z,11.25
2023-04-04T12:25:56.891Z,15.23
2023-04-04T12:28:28.413Z,7.53
2023-04-04T12:30:58.429Z,17.35
2023-04-04T12:33:29.269Z,6.72
2023-04-04T12:35:58.561Z,15.27
2023-04-04T12:38:29.333Z,13.10
2023-04-04T12:40:59.308Z,13.23
2023-04-04T12:43:35.081Z,7.47
2023-04-04T12:46:10.075Z,10.18
2023-04-04T12:48:40.513Z,13.30
2023-04-04T12:51:12.356Z,15.63
2023-04-04T12:54:02.578Z,11.73
2023-04-04T12:56:33.316Z,18.75
2023-04-04T12:59:06.869Z,13.80
2023-04-04T13:04:10.905Z,11.82
2023-04-04T13:06:40.581Z,9.98
2023-04-04T13:09:21.962Z,12.25
2023-04-04T13:12:09.624Z,17.50
2023-04-04T13:15:02.086Z,10.30
2023-04-04T13:17:49.485Z,21.58
2023-04-04T13:20:22.508Z,23.80
2023-04-04T13:22:53.051Z,12.18
2023-04-04T13:25:23.130Z,21.88
2023-04-04T13:27:53.162Z,10.57
2023-04-04T13:30:23.442Z,13.38
2023-04-04T13:32:53.237Z,11.23
2023-04-04T13:35:22.493Z,12.68
2023-04-04T13:37:52.025Z,13.82
2023-04-04T13:40:21.967Z,21.63
2023-04-04T13:42:51.905Z,14.15
2023-04-04T13:45:21.871Z,12.65
2023-04-04T13:47:50.968Z,11.20
2023-04-04T13:50:22.205Z,17.42
2023-04-04T13:52:55.104Z,15.27
2023-04-04T13:55:25.024Z,11.45
2023-04-04T13:57:54.236Z,11.07
2023-04-04T14:00:27.806Z,17.23
2023-04-04T14:02:59.376Z,14.00
2023-04-04T14:05:29.253Z,13.07
2023-04-04T14:07:58.551Z,20.92
2023-04-04T14:10:27.575Z,8.52
2023-04-04T14:12:57.357Z,20.17
2023-04-04T14:15:26.685Z,14.55
2023-04-04T14:17:56.297Z,11.38
2023-04-04T14:20:25.679Z,19.92
2023-04-04T14:22:54.850Z,16.20
2023-04-04T14:25:24.313Z,12.90
2023-04-04T14:27:53.391Z,21.90
2023-04-04T14:30:23.057Z,28.70
2023-04-04T14:32:53.161Z,16.60
2023-04-04T14:35:23.135Z,22.00
2023-04-04T14:37:53.984Z,18.77
2023-04-04T14:40:24.570Z,27.75
2023-04-04T14:42:54.352Z,22.70
2023-04-04T14:45:25.296Z,26.95
2023-04-04T14:47:55.172Z,25.38
2023-04-04T14:50:25.731Z,27.88
2023-04-04T14:52:57.955Z,27.25
2023-04-04T14:55:28.458Z,29.95
2023-04-04T14:58:02.552Z,27.77
2023-04-04T15:00:33.131Z,21.40
2023-04-04T15:03:05.650Z,33.08
2023-04-04T15:05:38.210Z,26.75
2023-04-04T15:08:08.614Z,23.92
2023-04-04T15:10:38.659Z,25.75
2023-04-04T15:13:08.588Z,23.00
2023-04-04T15:15:38.214Z,23.33
2023-04-04T15:18:08.136Z,27.00
2023-04-04T15:20:40.715Z,27.55
2023-04-04T15:23:10.490Z,34.28
2023-04-04T15:25:40.586Z,30.02
2023-04-04T15:28:10.439Z,34.95
2023-04-04T15:30:40.039Z,25.73
2023-04-04T15:33:10.403Z,36.08
2023-04-04T15:35:40.025Z,26.50
2023-04-04T15:38:10.461Z,26.63
2023-04-04T15:40:40.829Z,27.70
2023-04-04T15:43:10.459Z,33.03
2023-04-04T15:45:40.545Z,23.15
2023-04-04T15:48:10.648Z,29.83
2023-04-04T15:50:40.356Z,28.60
2023-04-04T15:53:10.694Z,34.53
2023-04-04T15:55:40.568Z,38.97
2023-04-04T15:58:10.397Z,32.80
2023-04-04T16:00:47.282Z,30.65
2023-04-04T16:03:17.391Z,32.05
2023-04-04T16:05:47.871Z,32.67
2023-04-04T16:08:18.036Z,30.80
2023-04-04T16:10:48.086Z,34.33
2023-04-04T16:13:18.003Z,24.98
2023-04-04T16:15:47.874Z,32.17
2023-04-04T16:18:17.506Z,30.80
2023-04-04T16:20:47.377Z,29.98
2023-04-04T16:23:17.153Z,27.67
2023-04-04T16:25:47.039Z,22.80
2023-04-04T16:28:17.401Z,23.20
2023-04-04T16:30:47.385Z,22.23
2023-04-04T16:33:17.773Z,26.15
2023-04-04T16:35:47.920Z,26.65
2023-04-04T16:38:21.381Z,29.83
2023-04-04T16:40:51.371Z,34.28
2023-04-04T16:43:21.736Z,35.50
2023-04-04T16:45:51.978Z,33.08
2023-04-04T16:48:22.597Z,32.67
2023-04-04T16:50:52.938Z,37.42
2023-04-04T16:53:23.433Z,32.60
2023-04-04T16:55:53.242Z,30.83
2023-04-04T16:58:23.785Z,40.25
2023-04-04T17:00:53.814Z,27.98
2023-04-04T17:03:24.061Z,45.28
2023-04-04T17:06:02.212Z,69.48
2023-04-04T17:08:33.923Z,58.63
2023-04-04T17:11:04.225Z,39.05
2023-04-04T17:13:34.089Z,40.45
2023-04-04T17:16:04.196Z,37.63
2023-04-04T17:18:35.752Z,46.85
2023-04-04T17:21:06.637Z,43.17
2023-04-04T17:23:37.147Z,42.67
2023-04-04T17:26:07.925Z,38.70
2023-04-04T17:28:38.527Z,49.13
2023-04-04T17:31:09.726Z,45.33
2023-04-04T17:33:40.238Z,47.55
2023-04-04T17:36:11.122Z,38.63
2023-04-04T17:38:42.669Z,42.55
2023-04-04T17:41:13.401Z,44.70
2023-04-04T17:43:44.207Z,40.08
2023-04-04T17:46:15.139Z,43.53
2023-04-04T17:48:46.866Z,44.15
2023-04-04T17:51:18.025Z,47.63
2023-04-04T17:53:49.036Z,51.85
2023-04-04T17:56:19.798Z,51.13
2023-04-04T17:58:51.331Z,62.53
2023-04-04T18:01:24.107Z,63.80
2023-04-04T18:03:55.039Z,61.85
2023-04-04T18:06:25.554Z,54.65
2023-04-04T18:08:57.096Z,54.38
2023-04-04T18:11:29.709Z,67.47
2023-04-04T18:13:59.798Z,59.15
2023-04-04T18:16:30.476Z,52.95
2023-04-04T18:19:01.765Z,56.80
2023-04-04T18:21:33.003Z,61.75
2023-04-04T18:24:03.899Z,57.97
2023-04-04T18:26:35.915Z,55.65
2023-04-04T18:29:07.098Z,50.95
2023-04-04T18:31:38.283Z,51.03
2023-04-04T18:34:09.772Z,60.78
2023-04-04T18:36:41.537Z,58.15
2023-04-04T18:39:13.359Z,56.30
2023-04-04T18:41:44.112Z,42.80
2023-04-04T18:44:14.696Z,58.42
2023-04-04T18:46:44.838Z,51.53
2023-04-04T18:49:14.990Z,56.88
2023-04-04T18:51:45.209Z,55.78
2023-04-04T18:54:15.408Z,63.90
2023-04-04T18:56:45.851Z,54.80
2023-04-04T18:59:16.672Z,51.50
2023-04-04T19:01:46.984Z,76.43
2023-04-04T19:04:22.405Z,65.82
2023-04-04T19:06:55.562Z,64.18
2023-04-04T19:09:26.425Z,76.13
2023-04-04T19:12:00.025Z,64.03
2023-04-04T19:14:32.432Z,69.63
2023-04-04T19:17:03.910Z,67.20
2023-04-04T19:19:34.046Z,66.63
2023-04-04T19:22:04.424Z,71.88
2023-04-04T19:24:34.827Z,74.50
2023-04-04T19:27:04.918Z,70.78
2023-04-04T19:29:37.990Z,81.65
2023-04-04T19:32:21.105Z,85.90
2023-04-04T19:34:51.374Z,80.13
2023-04-04T19:37:21.663Z,76.53
2023-04-04T19:39:52.015Z,79.85
2023-04-04T19:42:29.314Z,92.60
2023-04-04T19:44:59.576Z,96.45
2023-04-04T19:47:29.673Z,99.70
2023-04-04T19:49:59.711Z,95.10
2023-04-04T19:52:29.443Z,95.40
2023-04-04T19:54:58.851Z,100.18
2023-04-04T19:57:28.731Z,102.18
2023-04-04T19:59:58.851Z,100.70
2023-04-04T20:02:34.722Z,106.07
2023-04-04T20:05:24.421Z,110.65
2023-04-04T20:07:54.735Z,89.45
2023-04-04T20:10:41.593Z,98.18
2023-04-04T20:13:12.339Z,91.38
2023-04-04T20:15:48.809Z,102.72
2023-04-04T20:18:30.073Z,101.25
2023-04-04T20:21:09.130Z,102.88
2023-04-04T20:23:55.082Z,105.93
2023-04-04T20:26:55.465Z,130.13
2023-04-04T20:29:31.034Z,97.68
2023-04-04T20:32:06.528Z,98.70
2023-04-04T20:34:43.895Z,108.10
2023-04-04T20:37:27.357Z,112.80
2023-04-04T20:40:13.447Z,105.60
2023-04-04T20:42:43.094Z,104.13
2023-04-04T20:45:29.098Z,105.18
2023-04-04T20:47:59.377Z,111.85
2023-04-04T20:50:28.932Z,113.72
2023-04-04T20:53:02.829Z,105.72
2023-04-04T20:55:34.354Z,103.82
2023-04-04T20:58:10.617Z,100.15
2023-04-04T21:00:41.530Z,104.82
2023-04-04T21:03:38.970Z,89.97
2023-04-04T21:06:14.515Z,116.78
2023-04-04T21:08:52.603Z,102.75
2023-04-04T21:11:31.233Z,121.93
2023-04-04T21:14:01.014Z,98.43
2023-04-04T21:16:31.046Z,114.43
2023-04-04T21:19:02.835Z,98.60
2023-04-04T21:21:32.572Z,112.72
2023-04-04T21:24:02.902Z,93.85
2023-04-04T21:26:43.113Z,100.10
2023-04-04T21:29:27.330Z,98.72
2023-04-04T21:31:57.612Z,99.35
2023-04-04T21:34:28.664Z,93.13
2023-04-04T21:37:02.570Z,98.47
2023-04-04T21:39:32.870Z,98.13
2023-04-04T21:42:05.981Z,84.15
2023-04-04T21:44:39.296Z,100.85
2023-04-04T21:47:08.801Z,92.43
2023-04-04T21:49:38.096Z,92.30
2023-04-04T21:52:07.466Z,78.68
2023-04-04T21:54:39.068Z,93.40
2023-04-04T21:57:08.338Z,87.25
2023-04-04T21:59:37.500Z,84.63
2023-04-04T22:02:06.822Z,85.57
2023-04-04T22:04:36.786Z,81.43
2023-04-04T22:07:06.028Z,85.70
2023-04-04T22:09:35.241Z,69.90
2023-04-04T22:12:04.650Z,73.25
2023-04-04T22:14:33.959Z,88.28
2023-04-04T22:17:04.298Z,76.03
2023-04-04T22:19:44.197Z,79.93
2023-04-04T22:22:14.808Z,75.90
2023-04-04T22:24:44.067Z,70.55
2023-04-04T22:27:14.763Z,74.38
2023-04-04T22:29:44.259Z,72.40
2023-04-04T22:32:13.450Z,60.50
2023-04-04T22:34:42.950Z,73.60
2023-04-04T22:37:12.471Z,78.13
2023-04-04T22:39:43.775Z,61.08
2023-04-04T22:42:16.070Z,57.85
2023-04-04T22:44:46.009Z,65.65
2023-04-04T22:47:15.706Z,58.92
2023-04-04T22:49:50.284Z,57.92
2023-04-04T22:52:20.034Z,66.43
2023-04-04T22:54:50.407Z,52.17
2023-04-04T22:57:19.853Z,48.40
2023-04-04T22:59:49.325Z,49.67
2023-04-04T23:02:18.433Z,52.25
2023-04-04T23:04:48.628Z,52.30
2023-04-04T23:07:17.767Z,50.03
2023-04-04T23:09:47.104Z,56.17
2023-04-04T23:12:16.704Z,52.50
2023-04-04T23:14:46.193Z,57.55
2023-04-04T23:17:15.226Z,57.83
2023-04-04T23:19:44.852Z,49.30
2023-04-04T23:22:14.123Z,52.83
2023-04-04T23:24:45.924Z,52.88
2023-04-04T23:27:15.712Z,52.58
2023-04-04T23:29:45.284Z,62.47
2023-04-04T23:32:15.000Z,58.03
2023-04-04T23:34:44.360Z,47.92
2023-04-04T23:37:13.696Z,50.95
2023-04-04T23:39:43.239Z,54.80
2023-04-04T23:42:12.888Z,50.15
2023-04-04T23:44:42.157Z,50.08
2023-04-04T23:47:11.962Z,63.65
2023-04-04T23:49:41.459Z,53.42
2023-04-04T23:52:10.686Z,56.97
2023-04-04T23:54:40.185Z,58.80
2023-04-04T23:57:09.464Z,68.78
2023-04-04T23:59:40.808Z,52.08
